createdAt,value
2022-07-31T00:00:15.188Z,2.53
2022-07-31T00:02:42.192Z,2.47
2022-07-31T00:05:09.821Z,2.35
2022-07-31T00:07:37.147Z,2.10
2022-07-31T00:10:05.941Z,2.38
2022-07-31T00:12:34.807Z,2.97
2022-07-31T00:15:07.505Z,2.65
2022-07-31T00:17:34.733Z,2.40
2022-07-31T00:20:02.121Z,2.65
2022-07-31T00:22:29.230Z,2.38
2022-07-31T00:24:56.629Z,2.38
2022-07-31T00:27:24.167Z,2.67
2022-07-31T00:29:51.414Z,2.58
2022-07-31T00:32:18.530Z,2.28
2022-07-31T00:34:45.516Z,2.50
2022-07-31T00:37:12.452Z,2.63
2022-07-31T00:39:39.429Z,2.55
2022-07-31T00:42:16.081Z,2.70
2022-07-31T00:44:43.030Z,2.60
2022-07-31T00:47:14.974Z,2.25
2022-07-31T00:49:42.296Z,2.50
2022-07-31T00:52:09.416Z,2.60
2022-07-31T00:54:36.394Z,2.40
2022-07-31T00:57:04.411Z,2.42
2022-07-31T00:59:31.985Z,2.70
2022-07-31T01:01:59.723Z,2.15
2022-07-31T01:04:27.343Z,2.90
2022-07-31T01:06:55.742Z,2.28
2022-07-31T01:09:22.963Z,2.00
2022-07-31T01:12:16.369Z,2.35
2022-07-31T01:14:56.946Z,2.25
2022-07-31T01:17:27.929Z,2.22
2022-07-31T01:19:55.078Z,2.35
2022-07-31T01:22:57.311Z,2.25
2022-07-31T01:25:47.576Z,3.47
2022-07-31T01:28:53.741Z,1.92
2022-07-31T01:31:57.575Z,2.38
2022-07-31T01:34:46.645Z,2.95
2022-07-31T01:37:42.458Z,2.58
2022-07-31T01:40:16.937Z,2.85
2022-07-31T01:42:51.846Z,2.40
2022-07-31T01:45:20.953Z,2.47
2022-07-31T01:47:49.029Z,2.40
2022-07-31T01:50:42.524Z,2.40
2022-07-31T01:53:05.015Z,2.53
2022-07-31T01:56:02.248Z,2.60
2022-07-31T01:58:23.906Z,2.55
2022-07-31T02:00:58.320Z,2.83
2022-07-31T02:03:43.636Z,2.58
2022-07-31T02:06:18.955Z,2.72
2022-07-31T02:08:49.157Z,2.95
2022-07-31T02:11:19.955Z,2.40
2022-07-31T02:13:48.925Z,3.05
2022-07-31T02:16:19.517Z,2.85
2022-07-31T02:18:52.603Z,2.67
2022-07-31T02:21:26.033Z,2.85
2022-07-31T02:26:21.807Z,2.67
2022-07-31T02:28:51.015Z,2.42
2022-07-31T02:31:18.522Z,2.60
2022-07-31T02:33:49.301Z,3.10
2022-07-31T02:36:19.978Z,2.78
2022-07-31T02:38:48.809Z,2.40
2022-07-31T02:41:18.104Z,2.53
2022-07-31T02:43:46.843Z,3.08
2022-07-31T02:46:25.041Z,3.42
2022-07-31T02:48:52.833Z,2.97
2022-07-31T02:51:23.889Z,2.90
2022-07-31T02:53:51.554Z,3.45
2022-07-31T02:56:19.558Z,3.30
2022-07-31T02:58:47.595Z,3.17
2022-07-31T03:01:21.512Z,2.88
2022-07-31T03:03:50.126Z,3.22
2022-07-31T03:06:18.078Z,2.90
2022-07-31T03:08:45.449Z,2.40
2022-07-31T03:11:16.482Z,3.03
2022-07-31T03:13:45.190Z,2.42
2022-07-31T03:16:12.890Z,2.90
2022-07-31T03:18:41.616Z,2.92
2022-07-31T03:21:11.048Z,3.00
2022-07-31T03:23:39.066Z,2.83
2022-07-31T03:26:11.169Z,3.35
2022-07-31T03:28:39.117Z,3.58
2022-07-31T03:31:10.412Z,3.33
2022-07-31T03:33:37.419Z,3.38
2022-07-31T03:36:05.466Z,2.90
2022-07-31T03:38:39.303Z,3.47
2022-07-31T03:41:18.605Z,3.15
2022-07-31T03:43:48.585Z,3.53
2022-07-31T03:46:22.504Z,2.97
2022-07-31T03:48:52.490Z,2.85
2022-07-31T03:51:20.167Z,3.22
2022-07-31T03:53:48.971Z,3.13
2022-07-31T03:56:56.737Z,3.08
2022-07-31T03:59:25.847Z,2.92
2022-07-31T04:01:58.349Z,3.30
2022-07-31T04:07:11.680Z,3.38
2022-07-31T04:09:38.812Z,3.33
2022-07-31T04:12:07.347Z,2.80
2022-07-31T04:14:34.518Z,3.22
2022-07-31T04:17:01.565Z,3.28
2022-07-31T04:19:31.665Z,3.80
2022-07-31T04:21:59.714Z,3.30
2022-07-31T04:24:27.293Z,2.88
2022-07-31T04:29:46.872Z,3.20
2022-07-31T04:32:14.970Z,3.03
2022-07-31T04:34:52.885Z,3.20
2022-07-31T04:37:20.264Z,3.00
2022-07-31T04:39:47.605Z,3.15
2022-07-31T04:42:15.436Z,2.88
2022-07-31T04:44:42.475Z,3.00
2022-07-31T04:47:09.496Z,2.67
2022-07-31T04:49:42.041Z,3.47
2022-07-31T04:52:11.289Z,3.58
2022-07-31T04:54:39.471Z,3.30
2022-07-31T04:57:08.780Z,3.27
2022-07-31T04:59:57.937Z,3.25
2022-07-31T05:02:22.808Z,3.13
2022-07-31T05:04:56.332Z,3.17
2022-07-31T05:07:28.603Z,3.28
2022-07-31T05:09:58.543Z,3.05
2022-07-31T05:12:26.070Z,3.30
2022-07-31T05:14:53.510Z,3.00
2022-07-31T05:17:20.837Z,2.72
2022-07-31T05:20:06.745Z,2.78
2022-07-31T05:22:56.230Z,3.00
2022-07-31T05:25:43.655Z,3.67
2022-07-31T05:28:10.656Z,3.38
2022-07-31T05:30:39.328Z,3.13
2022-07-31T05:33:06.803Z,3.17
2022-07-31T05:35:33.834Z,3.03
2022-07-31T05:38:00.998Z,3.00
2022-07-31T05:40:46.302Z,3.33
2022-07-31T05:43:38.470Z,2.55
2022-07-31T05:46:29.048Z,3.15
2022-07-31T05:48:56.073Z,3.47
2022-07-31T05:51:23.184Z,3.10
2022-07-31T05:53:50.365Z,3.10
2022-07-31T05:56:35.681Z,2.63
2022-07-31T05:59:02.946Z,3.65
2022-07-31T06:01:30.193Z,3.00
2022-07-31T06:03:57.314Z,3.13
2022-07-31T06:06:30.457Z,3.03
2022-07-31T06:09:03.748Z,3.30
2022-07-31T06:11:35.085Z,3.10
2022-07-31T06:14:02.123Z,3.03
2022-07-31T06:16:39.071Z,3.08
2022-07-31T06:19:06.059Z,2.83
2022-07-31T06:21:33.061Z,2.65
2022-07-31T06:24:00.192Z,3.08
2022-07-31T06:26:38.878Z,2.65
2022-07-31T06:29:07.169Z,2.63
2022-07-31T06:31:34.410Z,2.78
2022-07-31T06:34:01.645Z,3.70
2022-07-31T06:36:37.358Z,3.30
2022-07-31T06:41:49.707Z,2.63
2022-07-31T06:44:46.383Z,2.80
2022-07-31T06:47:32.456Z,3.00
2022-07-31T06:50:15.902Z,2.95
2022-07-31T06:52:53.179Z,2.70
2022-07-31T06:55:22.689Z,2.75
2022-07-31T06:57:51.487Z,2.50
2022-07-31T07:00:20.447Z,3.28
2022-07-31T07:02:50.610Z,3.25
2022-07-31T07:05:17.949Z,2.83
2022-07-31T07:07:48.008Z,2.28
2022-07-31T07:10:15.201Z,2.67
2022-07-31T07:13:11.256Z,2.45
2022-07-31T07:15:38.271Z,2.60
2022-07-31T07:18:06.928Z,3.17
2022-07-31T07:20:39.048Z,2.88
2022-07-31T07:23:06.378Z,2.63
2022-07-31T07:25:42.167Z,2.50
2022-07-31T07:30:56.593Z,2.33
2022-07-31T07:33:41.082Z,2.47
2022-07-31T07:36:23.656Z,2.50
2022-07-31T07:38:56.225Z,2.90
2022-07-31T07:41:25.169Z,3.03
2022-07-31T07:43:53.215Z,2.78
2022-07-31T07:46:23.846Z,2.67
2022-07-31T07:48:57.769Z,2.85
2022-07-31T07:51:59.703Z,2.47
2022-07-31T07:54:40.064Z,2.78
2022-07-31T07:57:15.103Z,2.88
2022-07-31T08:00:01.626Z,3.22
2022-07-31T08:03:46.665Z,2.90
2022-07-31T08:05:39.980Z,2.80
2022-07-31T08:08:07.125Z,3.30
2022-07-31T08:10:49.805Z,2.92
2022-07-31T08:13:23.693Z,3.03
2022-07-31T08:16:09.100Z,2.97
2022-07-31T08:18:44.963Z,2.65
2022-07-31T08:21:12.232Z,3.00
2022-07-31T08:23:39.215Z,2.83
2022-07-31T08:26:10.417Z,2.67
2022-07-31T08:28:38.661Z,2.60
2022-07-31T08:31:05.824Z,2.70
2022-07-31T08:33:39.287Z,2.75
2022-07-31T08:36:09.125Z,2.35
2022-07-31T08:38:37.046Z,2.92
2022-07-31T08:41:22.747Z,2.30
2022-07-31T08:43:59.932Z,2.45
2022-07-31T08:46:40.986Z,2.53
2022-07-31T08:49:09.924Z,2.75
2022-07-31T08:51:51.623Z,2.20
2022-07-31T08:54:24.122Z,2.80
2022-07-31T08:56:52.909Z,2.38
2022-07-31T08:59:21.912Z,2.42
2022-07-31T09:01:49.376Z,2.75
2022-07-31T09:04:17.147Z,2.90
2022-07-31T09:06:45.192Z,2.75
2022-07-31T09:09:12.349Z,2.60
2022-07-31T09:11:55.805Z,2.60
2022-07-31T09:14:49.454Z,2.30
2022-07-31T09:17:17.216Z,2.55
2022-07-31T09:19:51.982Z,2.60
2022-07-31T09:22:31.207Z,2.67
2022-07-31T09:25:12.144Z,2.40
2022-07-31T09:27:43.250Z,1.92
2022-07-31T09:30:12.270Z,2.28
2022-07-31T09:33:18.708Z,2.10
2022-07-31T09:36:00.960Z,2.13
2022-07-31T09:38:44.053Z,2.33
2022-07-31T09:41:58.067Z,2.13
2022-07-31T09:44:15.961Z,2.58
2022-07-31T09:46:49.702Z,1.80
2022-07-31T09:49:17.169Z,2.10
2022-07-31T09:54:25.790Z,2.20
2022-07-31T09:57:13.678Z,2.38
2022-07-31T09:59:44.255Z,2.13
2022-07-31T10:02:15.517Z,1.85
2022-07-31T10:04:48.673Z,2.65
2022-07-31T10:07:24.434Z,1.95
2022-07-31T10:10:07.705Z,2.22
2022-07-31T10:12:50.226Z,2.30
2022-07-31T10:15:20.062Z,2.30
2022-07-31T10:17:59.364Z,1.83
2022-07-31T10:20:54.727Z,1.88
2022-07-31T10:23:45.590Z,1.45
2022-07-31T10:26:13.985Z,2.20
2022-07-31T10:28:42.681Z,2.15
2022-07-31T10:31:12.481Z,1.70
2022-07-31T10:33:44.053Z,1.50
2022-07-31T10:36:48.524Z,1.88
2022-07-31T10:40:24.574Z,1.80
2022-07-31T10:43:24.586Z,2.22
2022-07-31T10:46:25.809Z,2.30
2022-07-31T10:49:08.837Z,1.98
2022-07-31T10:51:55.005Z,1.75
2022-07-31T10:54:46.903Z,1.63
2022-07-31T10:57:34.985Z,1.80
2022-07-31T11:00:33.667Z,1.83
2022-07-31T11:03:46.042Z,1.50
2022-07-31T11:06:41.521Z,1.92
2022-07-31T11:09:30.226Z,1.67
2022-07-31T11:12:27.927Z,1.85
2022-07-31T11:15:24.171Z,1.63
2022-07-31T11:18:25.244Z,2.03
2022-07-31T11:21:36.076Z,2.13
2022-07-31T11:24:03.836Z,1.83
2022-07-31T11:26:41.295Z,2.03
2022-07-31T11:29:58.943Z,1.73
2022-07-31T11:32:06.435Z,1.55
2022-07-31T11:34:57.098Z,1.70
2022-07-31T11:37:46.187Z,2.10
2022-07-31T11:40:19.667Z,1.70
2022-07-31T11:43:00.044Z,2.17
2022-07-31T11:45:33.380Z,2.00
2022-07-31T11:48:12.225Z,1.63
2022-07-31T11:50:42.693Z,1.70
2022-07-31T11:53:09.830Z,1.75
2022-07-31T11:55:54.509Z,1.90
2022-07-31T11:58:23.581Z,2.03
2022-07-31T12:01:00.470Z,2.03
2022-07-31T12:03:36.705Z,1.85
2022-07-31T12:06:06.168Z,2.05
2022-07-31T12:08:35.330Z,1.75
2022-07-31T12:11:05.171Z,2.05
2022-07-31T12:13:32.492Z,1.60
2022-07-31T12:16:05.130Z,1.40
2022-07-31T12:18:59.045Z,1.98
2022-07-31T12:21:39.747Z,1.73
2022-07-31T12:24:14.490Z,1.83
2022-07-31T12:26:52.068Z,1.55
2022-07-31T12:29:20.199Z,1.40
2022-07-31T12:31:48.283Z,1.85
2022-07-31T12:34:42.873Z,1.60
2022-07-31T12:37:15.461Z,1.60
2022-07-31T12:40:00.989Z,1.88
2022-07-31T12:42:40.730Z,1.70
2022-07-31T12:45:19.281Z,1.48
2022-07-31T12:47:51.423Z,1.73
2022-07-31T12:50:25.613Z,1.50
2022-07-31T12:52:53.589Z,1.58
2022-07-31T12:55:20.972Z,1.50
2022-07-31T12:57:51.035Z,1.60
2022-07-31T13:00:23.116Z,1.75
2022-07-31T13:02:52.275Z,1.60
2022-07-31T13:05:19.877Z,1.48
2022-07-31T13:07:47.312Z,1.55
2022-07-31T13:10:22.206Z,1.52
2022-07-31T13:12:52.877Z,1.45
2022-07-31T13:15:29.461Z,1.80
2022-07-31T13:17:59.806Z,1.60
2022-07-31T13:20:27.005Z,1.48
2022-07-31T13:22:54.211Z,1.65
2022-07-31T13:25:21.279Z,1.65
2022-07-31T13:27:48.341Z,1.88
2022-07-31T13:30:16.373Z,1.48
2022-07-31T13:32:43.385Z,1.58
2022-07-31T13:35:27.192Z,1.73
2022-07-31T13:37:56.344Z,1.52
2022-07-31T13:40:42.239Z,1.50
2022-07-31T13:43:09.463Z,1.52
2022-07-31T13:45:37.037Z,1.33
2022-07-31T13:48:09.010Z,2.28
2022-07-31T13:50:39.565Z,1.55
2022-07-31T13:53:06.721Z,1.50
2022-07-31T13:55:33.888Z,1.50
2022-07-31T13:58:01.678Z,1.27
2022-07-31T14:00:30.812Z,1.50
2022-07-31T14:02:58.356Z,2.33
2022-07-31T14:05:27.519Z,1.70
2022-07-31T14:07:56.095Z,1.55
2022-07-31T14:10:23.952Z,1.40
2022-07-31T14:12:51.317Z,1.60
2022-07-31T14:15:18.720Z,1.48
2022-07-31T14:17:46.385Z,1.70
2022-07-31T14:20:13.952Z,1.40
2022-07-31T14:22:42.238Z,1.10
2022-07-31T14:25:12.115Z,1.33
2022-07-31T14:27:39.776Z,1.40
2022-07-31T14:30:09.042Z,1.30
2022-07-31T14:35:08.128Z,1.23
2022-07-31T14:37:36.660Z,1.42
2022-07-31T14:40:08.170Z,1.58
2022-07-31T14:42:35.587Z,1.20
2022-07-31T14:45:03.214Z,1.30
2022-07-31T14:47:34.305Z,1.33
2022-07-31T14:50:06.941Z,1.98
2022-07-31T14:52:37.271Z,1.50
2022-07-31T14:55:07.829Z,1.13
2022-07-31T14:57:34.909Z,1.17
2022-07-31T15:00:02.146Z,1.20
2022-07-31T15:02:29.244Z,1.08
2022-07-31T15:04:56.897Z,1.10
2022-07-31T15:07:45.893Z,1.23
2022-07-31T15:10:12.220Z,1.25
2022-07-31T15:12:40.212Z,1.42
2022-07-31T15:15:08.539Z,1.40
2022-07-31T15:17:35.727Z,1.20
2022-07-31T15:20:02.883Z,1.17
2022-07-31T15:22:29.933Z,1.40
2022-07-31T15:24:57.109Z,1.02
2022-07-31T15:27:25.024Z,1.33
2022-07-31T15:30:00.692Z,1.45
2022-07-31T15:32:39.247Z,1.30
2022-07-31T15:35:09.460Z,2.13
2022-07-31T15:37:38.899Z,0.90
2022-07-31T15:40:09.769Z,1.20
2022-07-31T15:42:40.506Z,1.15
2022-07-31T15:45:13.593Z,1.00
2022-07-31T15:47:42.423Z,0.90
2022-07-31T15:50:12.191Z,1.08
2022-07-31T15:52:39.974Z,0.95
2022-07-31T15:55:08.784Z,1.10
2022-07-31T15:57:35.963Z,1.27
2022-07-31T16:00:04.524Z,1.00
2022-07-31T16:02:38.236Z,1.35
2022-07-31T16:05:12.118Z,1.00
2022-07-31T16:08:32.747Z,0.85
2022-07-31T16:10:38.559Z,1.08
2022-07-31T16:13:05.787Z,1.20
2022-07-31T16:15:34.644Z,0.80
2022-07-31T16:18:02.272Z,1.25
2022-07-31T16:20:29.338Z,1.10
2022-07-31T16:23:00.993Z,1.10
2022-07-31T16:25:34.806Z,1.00
2022-07-31T16:28:04.270Z,1.30
2022-07-31T16:30:32.001Z,1.10
2022-07-31T16:32:59.275Z,1.00
2022-07-31T16:35:26.546Z,1.30
2022-07-31T16:37:54.742Z,1.15
2022-07-31T16:40:28.555Z,0.88
2022-07-31T16:43:48.121Z,1.20
2022-07-31T16:45:52.233Z,0.90
2022-07-31T16:48:19.628Z,0.98
2022-07-31T16:50:48.401Z,1.10
2022-07-31T16:54:12.706Z,1.00
2022-07-31T16:56:16.105Z,1.33
2022-07-31T16:58:44.062Z,1.17
2022-07-31T17:01:57.905Z,1.10
2022-07-31T17:04:03.584Z,1.23
2022-07-31T17:06:35.959Z,1.20
2022-07-31T17:09:16.963Z,1.10
2022-07-31T17:11:50.975Z,1.10
2022-07-31T17:14:27.188Z,0.90
2022-07-31T17:16:55.690Z,1.02
2022-07-31T17:19:41.235Z,1.10
2022-07-31T17:22:17.480Z,1.35
2022-07-31T17:24:50.437Z,1.20
2022-07-31T17:27:19.206Z,1.23
2022-07-31T17:29:46.278Z,1.03
2022-07-31T17:32:13.673Z,1.33
2022-07-31T17:34:44.890Z,1.20
2022-07-31T17:37:12.843Z,1.25
2022-07-31T17:39:39.913Z,1.60
2022-07-31T17:42:09.300Z,1.10
2022-07-31T17:44:37.891Z,0.98
2022-07-31T17:47:08.269Z,1.50
2022-07-31T17:49:35.808Z,1.40
2022-07-31T17:52:03.246Z,1.50
2022-07-31T17:54:32.535Z,1.00
2022-07-31T17:59:28.073Z,1.20
2022-07-31T18:02:00.315Z,1.60
2022-07-31T18:04:33.404Z,1.10
2022-07-31T18:07:04.161Z,1.35
2022-07-31T18:09:32.007Z,1.20
2022-07-31T18:11:59.134Z,1.42
2022-07-31T18:14:26.711Z,1.50
2022-07-31T18:16:54.261Z,1.20
2022-07-31T18:19:22.492Z,0.93
2022-07-31T18:21:51.335Z,1.33
2022-07-31T18:24:20.054Z,1.40
2022-07-31T18:26:47.625Z,1.30
2022-07-31T18:29:16.897Z,1.30
2022-07-31T18:31:45.368Z,1.20
2022-07-31T18:34:13.193Z,1.10
2022-07-31T18:36:40.823Z,1.60
2022-07-31T18:39:07.973Z,1.40
2022-07-31T18:41:35.097Z,1.48
2022-07-31T18:44:02.205Z,1.67
2022-07-31T18:46:29.316Z,1.60
2022-07-31T18:48:56.926Z,1.42
2022-07-31T18:51:29.143Z,1.35
2022-07-31T18:53:56.408Z,1.42
2022-07-31T18:56:25.233Z,1.50
2022-07-31T18:58:53.900Z,2.00
2022-07-31T19:01:21.484Z,1.40
2022-07-31T19:03:49.231Z,1.50
2022-07-31T19:06:17.423Z,1.58
2022-07-31T19:08:44.962Z,1.65
2022-07-31T19:11:12.443Z,1.73
2022-07-31T19:13:39.659Z,1.55
2022-07-31T19:16:06.881Z,1.90
2022-07-31T19:18:34.431Z,1.60
2022-07-31T19:21:21.355Z,1.70
2022-07-31T19:23:49.676Z,1.70
2022-07-31T19:26:16.956Z,2.10
2022-07-31T19:28:44.274Z,2.05
2022-07-31T19:31:13.393Z,1.50
2022-07-31T19:33:40.914Z,2.08
2022-07-31T19:36:08.382Z,2.08
2022-07-31T19:38:40.861Z,2.15
2022-07-31T19:41:07.923Z,1.67
2022-07-31T19:43:35.720Z,1.80
2022-07-31T19:46:11.825Z,1.98
2022-07-31T19:48:44.866Z,1.80
2022-07-31T19:51:15.403Z,2.08
2022-07-31T19:53:43.494Z,1.75
2022-07-31T19:56:15.802Z,1.80
2022-07-31T19:58:48.009Z,2.13
2022-07-31T20:01:15.527Z,1.98
2022-07-31T20:03:43.090Z,1.73
2022-07-31T20:06:10.190Z,1.75
2022-07-31T20:08:37.351Z,1.85
2022-07-31T20:11:05.382Z,1.83
2022-07-31T20:13:34.251Z,2.28
2022-07-31T20:16:01.839Z,1.95
2022-07-31T20:18:30.576Z,2.25
2022-07-31T20:21:07.283Z,2.10
2022-07-31T20:23:38.175Z,2.05
2022-07-31T20:26:10.687Z,2.40
2022-07-31T20:28:40.393Z,2.25
2022-07-31T20:31:17.242Z,2.00
2022-07-31T20:33:57.612Z,2.33
2022-07-31T20:36:26.853Z,2.22
2022-07-31T20:38:54.450Z,1.90
2022-07-31T20:41:21.537Z,2.20
2022-07-31T20:43:48.662Z,2.00
2022-07-31T20:46:16.746Z,2.50
2022-07-31T20:48:45.268Z,2.38
2022-07-31T20:51:20.563Z,2.10
2022-07-31T20:53:49.422Z,2.15
2022-07-31T20:56:16.872Z,2.60
2022-07-31T20:58:48.293Z,2.55
2022-07-31T21:01:20.165Z,2.20
2022-07-31T21:03:48.488Z,2.23
2022-07-31T21:06:16.589Z,2.28
2022-07-31T21:08:44.337Z,2.40
2022-07-31T21:11:11.867Z,2.42
2022-07-31T21:13:39.575Z,2.60
2022-07-31T21:16:06.793Z,2.28
2022-07-31T21:18:37.075Z,2.15
2022-07-31T21:21:06.445Z,2.05
2022-07-31T21:23:33.976Z,2.83
2022-07-31T21:26:02.706Z,2.15
2022-07-31T21:28:30.345Z,2.15
2022-07-31T21:30:57.869Z,2.05
2022-07-31T21:33:27.390Z,2.28
2022-07-31T21:35:55.426Z,2.40
2022-07-31T21:38:23.590Z,2.50
2022-07-31T21:40:51.828Z,2.13
2022-07-31T21:43:22.700Z,2.17
2022-07-31T21:45:57.320Z,2.20
2022-07-31T21:48:29.676Z,2.00
2022-07-31T21:50:57.545Z,2.45
2022-07-31T21:53:25.037Z,2.10
2022-07-31T21:55:52.420Z,2.75
2022-07-31T21:58:19.412Z,2.40
2022-07-31T22:00:46.815Z,2.13
2022-07-31T22:03:13.863Z,2.58
2022-07-31T22:05:59.647Z,2.45
2022-07-31T22:08:26.653Z,2.38
2022-07-31T22:10:53.893Z,2.33
2022-07-31T22:13:21.292Z,2.42
2022-07-31T22:15:52.670Z,2.38
2022-07-31T22:18:33.406Z,2.20
2022-07-31T22:21:04.178Z,2.35
2022-07-31T22:23:31.623Z,2.40
2022-07-31T22:25:59.021Z,3.10
2022-07-31T22:28:27.294Z,2.60
2022-07-31T22:30:55.693Z,3.22
2022-07-31T22:33:23.601Z,2.50
2022-07-31T22:35:59.812Z,2.38
2022-07-31T22:38:30.386Z,2.42
2022-07-31T22:40:59.631Z,2.63
2022-07-31T22:44:14.159Z,2.63
2022-07-31T22:46:15.360Z,2.53
2022-07-31T22:48:44.122Z,2.70
2022-07-31T22:51:14.290Z,2.72
2022-07-31T22:53:43.542Z,2.35
2022-07-31T22:56:10.656Z,2.92
2022-07-31T22:58:37.733Z,2.63
2022-07-31T23:01:04.747Z,2.55
2022-07-31T23:03:31.726Z,2.40
2022-07-31T23:06:02.520Z,2.30
2022-07-31T23:08:50.567Z,2.42
2022-07-31T23:11:20.819Z,2.78
2022-07-31T23:13:47.807Z,2.50
2022-07-31T23:16:14.858Z,2.35
2022-07-31T23:18:41.827Z,2.53
2022-07-31T23:21:12.209Z,2.50
2022-07-31T23:23:39.217Z,2.95
2022-07-31T23:26:06.341Z,2.40
2022-07-31T23:28:33.747Z,2.65
2022-07-31T23:31:00.726Z,2.97
2022-07-31T23:33:27.735Z,2.38
2022-07-31T23:35:54.811Z,2.40
2022-07-31T23:38:21.910Z,2.80
2022-07-31T23:40:48.853Z,3.10
2022-07-31T23:43:20.610Z,3.22
2022-07-31T23:45:47.982Z,3.08
2022-07-31T23:48:15.487Z,2.88
2022-07-31T23:50:44.314Z,2.70
2022-07-31T23:53:11.370Z,3.03
2022-07-31T23:55:39.219Z,3.15
2022-07-31T23:58:10.378Z,2.75
